sensor_id;sensor_type;location;lat;lon;timestamp;P1;durP1;ratioP1;P2;durP2;ratioP2
11431;SDS011;5772;50.940;6.782;2024-03-23T00:54:36;1999.90;;;999.90;;
11431;SDS011;5772;50.940;6.782;2024-03-23T00:57:01;1999.90;;;999.90;;
11431;SDS011;5772;50.940;6.782;2024-03-23T00:59:27;1999.90;;;999.90;;
11431;SDS011;5772;50.940;6.782;2024-03-23T01:01:52;1999.90;;;999.90;;
11431;SDS011;5772;50.940;6.782;2024-03-23T01:04:17;1999.90;;;999.90;;
11431;SDS011;5772;50.940;6.782;2024-03-23T01:06:43;1999.90;;;999.90;;
11431;SDS011;5772;50.940;6.782;2024-03-23T01:09:08;1999.90;;;999.90;;
11431;SDS011;5772;50.940;6.782;2024-03-23T01:11:35;1999.90;;;999.90;;
11431;SDS011;5772;50.940;6.782;2024-03-23T01:14:00;1999.90;;;999.90;;
11431;SDS011;5772;50.940;6.782;2024-03-23T01:16:25;1999.90;;;999.90;;
11431;SDS011;5772;50.940;6.782;2024-03-23T01:18:51;1999.90;;;999.90;;
11431;SDS011;5772;50.940;6.782;2024-03-23T01:21:16;1999.90;;;999.90;;
11431;SDS011;5772;50.940;6.782;2024-03-23T01:23:42;1999.90;;;999.90;;
11431;SDS011;5772;50.940;6.782;2024-03-23T01:26:07;1999.90;;;999.90;;
11431;SDS011;5772;50.940;6.782;2024-03-23T01:28:34;1999.90;;;999.90;;
11431;SDS011;5772;50.940;6.782;2024-03-23T01:30:59;1999.90;;;999.90;;
11431;SDS011;5772;50.940;6.782;2024-03-23T01:33:24;1999.90;;;999.90;;
11431;SDS011;5772;50.940;6.782;2024-03-23T01:35:50;1999.90;;;999.90;;
11431;SDS011;5772;50.940;6.782;2024-03-23T01:38:15;1999.90;;;999.90;;
11431;SDS011;5772;50.940;6.782;2024-03-23T01:40:40;1999.90;;;999.90;;
11431;SDS011;5772;50.940;6.782;2024-03-23T01:43:06;1999.90;;;999.90;;
11431;SDS011;5772;50.940;6.782;2024-03-23T01:45:34;1999.90;;;999.90;;
11431;SDS011;5772;50.940;6.782;2024-03-23T01:47:59;1999.90;;;999.90;;
11431;SDS011;5772;50.940;6.782;2024-03-23T01:50:25;1999.90;;;999.90;;
11431;SDS011;5772;50.940;6.782;2024-03-23T01:52:51;1999.90;;;999.90;;
11431;SDS011;5772;50.940;6.782;2024-03-23T01:55:16;1999.90;;;999.90;;
11431;SDS011;5772;50.940;6.782;2024-03-23T01:57:42;1999.90;;;999.90;;
11431;SDS011;5772;50.940;6.782;2024-03-23T02:00:07;1999.90;;;999.90;;
11431;SDS011;5772;50.940;6.782;2024-03-23T02:02:35;1999.90;;;999.90;;
11431;SDS011;5772;50.940;6.782;2024-03-23T02:05:00;1999.90;;;999.90;;
11431;SDS011;5772;50.940;6.782;2024-03-23T02:07:25;1999.90;;;999.90;;
11431;SDS011;5772;50.940;6.782;2024-03-23T02:09:51;1999.90;;;999.90;;
11431;SDS011;5772;50.940;6.782;2024-03-23T02:12:16;1999.90;;;999.90;;
11431;SDS011;5772;50.940;6.782;2024-03-23T02:14:42;1999.90;;;999.90;;
11431;SDS011;5772;50.940;6.782;2024-03-23T02:17:08;1999.90;;;999.90;;
11431;SDS011;5772;50.940;6.782;2024-03-23T02:19:35;1999.90;;;999.90;;
11431;SDS011;5772;50.940;6.782;2024-03-23T02:22:00;1999.90;;;999.90;;
11431;SDS011;5772;50.940;6.782;2024-03-23T02:24:28;1999.90;;;999.90;;
11431;SDS011;5772;50.940;6.782;2024-03-23T02:26:54;1999.90;;;999.90;;
11431;SDS011;5772;50.940;6.782;2024-03-23T02:29:19;1999.90;;;999.90;;
11431;SDS011;5772;50.940;6.782;2024-03-23T02:31:45;1999.90;;;999.90;;
11431;SDS011;5772;50.940;6.782;2024-03-23T02:34:10;1999.90;;;999.90;;
11431;SDS011;5772;50.940;6.782;2024-03-23T02:36:35;1999.90;;;999.90;;
11431;SDS011;5772;50.940;6.782;2024-03-23T02:39:01;1999.90;;;999.90;;
11431;SDS011;5772;50.940;6.782;2024-03-23T02:41:27;1999.90;;;999.90;;
11431;SDS011;5772;50.940;6.782;2024-03-23T02:43:53;1999.90;;;999.90;;
11431;SDS011;5772;50.940;6.782;2024-03-23T02:46:18;1999.90;;;999.90;;
11431;SDS011;5772;50.940;6.782;2024-03-23T02:48:43;1999.90;;;999.90;;
11431;SDS011;5772;50.940;6.782;2024-03-23T02:51:09;1999.90;;;999.90;;
11431;SDS011;5772;50.940;6.782;2024-03-23T02:53:34;1999.90;;;999.90;;
11431;SDS011;5772;50.940;6.782;2024-03-23T02:56:00;1999.90;;;999.90;;
11431;SDS011;5772;50.940;6.782;2024-03-23T02:58:27;1999.90;;;999.90;;
11431;SDS011;5772;50.940;6.782;2024-03-23T03:00:52;1999.90;;;999.90;;
11431;SDS011;5772;50.940;6.782;2024-03-23T03:03:17;1999.90;;;999.90;;
11431;SDS011;5772;50.940;6.782;2024-03-23T03:05:43;1999.90;;;999.90;;
11431;SDS011;5772;50.940;6.782;2024-03-23T03:08:08;1999.90;;;999.90;;
11431;SDS011;5772;50.940;6.782;2024-03-23T03:10:33;1999.90;;;999.90;;
11431;SDS011;5772;50.940;6.782;2024-03-23T03:12:59;1999.90;;;999.90;;
11431;SDS011;5772;50.940;6.782;2024-03-23T03:15:26;1999.90;;;999.90;;
11431;SDS011;5772;50.940;6.782;2024-03-23T03:17:51;1999.90;;;999.90;;
11431;SDS011;5772;50.940;6.782;2024-03-23T03:20:16;1999.90;;;999.90;;
11431;SDS011;5772;50.940;6.782;2024-03-23T03:22:42;1999.90;;;999.90;;
11431;SDS011;5772;50.940;6.782;2024-03-23T03:25:07;1999.90;;;999.90;;
11431;SDS011;5772;50.940;6.782;2024-03-23T03:27:33;1999.90;;;999.90;;
11431;SDS011;5772;50.940;6.782;2024-03-23T03:29:58;1999.90;;;999.90;;
11431;SDS011;5772;50.940;6.782;2024-03-23T03:32:25;1999.90;;;999.90;;
11431;SDS011;5772;50.940;6.782;2024-03-23T03:34:50;1999.90;;;999.90;;
11431;SDS011;5772;50.940;6.782;2024-03-23T03:37:16;1999.90;;;999.90;;
11431;SDS011;5772;50.940;6.782;2024-03-23T03:39:41;1999.90;;;999.90;;
11431;SDS011;5772;50.940;6.782;2024-03-23T03:42:06;1999.90;;;999.90;;
11431;SDS011;5772;50.940;6.782;2024-03-23T03:44:32;1999.90;;;999.90;;
11431;SDS011;5772;50.940;6.782;2024-03-23T03:46:57;1999.90;;;999.90;;
11431;SDS011;5772;50.940;6.782;2024-03-23T03:49:24;1999.90;;;999.90;;
11431;SDS011;5772;50.940;6.782;2024-03-23T03:51:49;1999.90;;;999.90;;
11431;SDS011;5772;50.940;6.782;2024-03-23T03:54:15;1999.90;;;999.90;;
11431;SDS011;5772;50.940;6.782;2024-03-23T03:56:40;1999.90;;;999.90;;
11431;SDS011;5772;50.940;6.782;2024-03-23T03:59:06;1999.90;;;999.90;;
11431;SDS011;5772;50.940;6.782;2024-03-23T04:01:31;1999.90;;;999.90;;
11431;SDS011;5772;50.940;6.782;2024-03-23T04:03:56;1999.90;;;999.90;;
11431;SDS011;5772;50.940;6.782;2024-03-23T04:06:23;1999.90;;;999.90;;
11431;SDS011;5772;50.940;6.782;2024-03-23T04:08:48;1999.90;;;999.90;;
11431;SDS011;5772;50.940;6.782;2024-03-23T04:11:14;1999.90;;;999.90;;
11431;SDS011;5772;50.940;6.782;2024-03-23T04:13:39;1999.90;;;999.90;;
11431;SDS011;5772;50.940;6.782;2024-03-23T04:16:05;1999.90;;;999.90;;
11431;SDS011;5772;50.940;6.782;2024-03-23T04:18:30;1999.90;;;999.90;;
11431;SDS011;5772;50.940;6.782;2024-03-23T04:20:55;1999.90;;;999.90;;
11431;SDS011;5772;50.940;6.782;2024-03-23T04:23:22;1999.90;;;999.90;;
11431;SDS011;5772;50.940;6.782;2024-03-23T04:25:47;1999.90;;;999.90;;
11431;SDS011;5772;50.940;6.782;2024-03-23T04:28:13;1999.90;;;999.90;;
11431;SDS011;5772;50.940;6.782;2024-03-23T04:30:38;1999.90;;;999.90;;
11431;SDS011;5772;50.940;6.782;2024-03-23T04:33:04;1999.90;;;999.90;;
11431;SDS011;5772;50.940;6.782;2024-03-23T04:35:29;1999.90;;;999.90;;
11431;SDS011;5772;50.940;6.782;2024-03-23T04:37:55;1999.90;;;999.90;;
11431;SDS011;5772;50.940;6.782;2024-03-23T04:40:22;1999.90;;;999.90;;
11431;SDS011;5772;50.940;6.782;2024-03-23T04:42:47;1999.90;;;999.90;;
11431;SDS011;5772;50.940;6.782;2024-03-23T04:45:12;1999.90;;;999.90;;
11431;SDS011;5772;50.940;6.782;2024-03-23T04:47:38;1999.90;;;999.90;;
11431;SDS011;5772;50.940;6.782;2024-03-23T04:50:04;1999.90;;;999.90;;
11431;SDS011;5772;50.940;6.782;2024-03-23T04:52:30;1999.90;;;999.90;;
11431;SDS011;5772;50.940;6.782;2024-03-23T04:54:55;1999.90;;;999.90;;
11431;SDS011;5772;50.940;6.782;2024-03-23T04:57:22;1999.90;;;999.90;;
11431;SDS011;5772;50.940;6.782;2024-03-23T04:59:48;1999.90;;;999.90;;
11431;SDS011;5772;50.940;6.782;2024-03-23T05:02:13;1999.90;;;999.90;;
11431;SDS011;5772;50.940;6.782;2024-03-23T05:04:39;1999.90;;;999.90;;
11431;SDS011;5772;50.940;6.782;2024-03-23T05:07:04;1999.90;;;999.90;;
11431;SDS011;5772;50.940;6.782;2024-03-23T05:09:30;1999.90;;;999.90;;
11431;SDS011;5772;50.940;6.782;2024-03-23T05:11:55;1999.90;;;999.90;;
11431;SDS011;5772;50.940;6.782;2024-03-23T05:14:22;1999.90;;;999.90;;
11431;SDS011;5772;50.940;6.782;2024-03-23T05:16:47;1999.90;;;999.90;;
11431;SDS011;5772;50.940;6.782;2024-03-23T05:19:13;1999.90;;;999.90;;
11431;SDS011;5772;50.940;6.782;2024-03-23T05:21:38;1999.90;;;999.90;;
11431;SDS011;5772;50.940;6.782;2024-03-23T05:24:06;1999.90;;;999.90;;
11431;SDS011;5772;50.940;6.782;2024-03-23T05:26:32;1999.90;;;999.90;;
11431;SDS011;5772;50.940;6.782;2024-03-23T05:28:57;1999.90;;;999.90;;
11431;SDS011;5772;50.940;6.782;2024-03-23T05:31:24;1999.90;;;999.90;;
11431;SDS011;5772;50.940;6.782;2024-03-23T05:33:49;1999.90;;;999.90;;
11431;SDS011;5772;50.940;6.782;2024-03-23T05:36:15;1999.90;;;999.90;;
11431;SDS011;5772;50.940;6.782;2024-03-23T05:38:40;1999.90;;;999.90;;
11431;SDS011;5772;50.940;6.782;2024-03-23T05:41:05;1999.90;;;999.90;;
11431;SDS011;5772;50.940;6.782;2024-03-23T05:43:31;1999.90;;;999.90;;
11431;SDS011;5772;50.940;6.782;2024-03-23T05:45:56;1999.90;;;999.90;;
11431;SDS011;5772;50.940;6.782;2024-03-23T05:48:24;1999.90;;;999.90;;
11431;SDS011;5772;50.940;6.782;2024-03-23T05:50:50;1999.90;;;999.90;;
11431;SDS011;5772;50.940;6.782;2024-03-23T05:53:16;1999.90;;;999.90;;
11431;SDS011;5772;50.940;6.782;2024-03-23T05:55:41;1999.90;;;999.90;;
11431;SDS011;5772;50.940;6.782;2024-03-23T05:58:07;1999.90;;;999.90;;
11431;SDS011;5772;50.940;6.782;2024-03-23T06:00:32;1999.90;;;999.90;;
11431;SDS011;5772;50.940;6.782;2024-03-23T06:02:57;1999.90;;;999.90;;
11431;SDS011;5772;50.940;6.782;2024-03-23T06:05:24;1999.90;;;999.90;;
11431;SDS011;5772;50.940;6.782;2024-03-23T06:07:49;1999.90;;;999.90;;
11431;SDS011;5772;50.940;6.782;2024-03-23T06:10:15;1999.90;;;999.90;;
11431;SDS011;5772;50.940;6.782;2024-03-23T06:12:40;1999.90;;;999.90;;
11431;SDS011;5772;50.940;6.782;2024-03-23T06:15:06;1999.90;;;999.90;;
11431;SDS011;5772;50.940;6.782;2024-03-23T06:17:32;1999.90;;;999.90;;
11431;SDS011;5772;50.940;6.782;2024-03-23T06:19:58;1999.90;;;999.90;;
11431;SDS011;5772;50.940;6.782;2024-03-23T06:22:24;1999.90;;;999.90;;
11431;SDS011;5772;50.940;6.782;2024-03-23T06:24:50;1999.90;;;999.90;;
11431;SDS011;5772;50.940;6.782;2024-03-23T06:27:15;1999.90;;;999.90;;
11431;SDS011;5772;50.940;6.782;2024-03-23T06:29:40;1999.90;;;999.90;;
11431;SDS011;5772;50.940;6.782;2024-03-23T06:32:06;1999.90;;;999.90;;
11431;SDS011;5772;50.940;6.782;2024-03-23T06:34:32;1999.90;;;999.90;;
11431;SDS011;5772;50.940;6.782;2024-03-23T06:36:57;1999.90;;;999.90;;
11431;SDS011;5772;50.940;6.782;2024-03-23T06:39:24;1999.90;;;999.90;;
11431;SDS011;5772;50.940;6.782;2024-03-23T06:41:51;1999.90;;;999.90;;
11431;SDS011;5772;50.940;6.782;2024-03-23T06:44:17;1999.90;;;999.90;;
11431;SDS011;5772;50.940;6.782;2024-03-23T06:46:43;1999.90;;;999.90;;
11431;SDS011;5772;50.940;6.782;2024-03-23T06:49:08;32.37;;;30.73;;
11431;SDS011;5772;50.940;6.782;2024-03-23T06:51:34;28.30;;;27.00;;
11431;SDS011;5772;50.940;6.782;2024-03-23T06:53:59;25.73;;;24.33;;
11431;SDS011;5772;50.940;6.782;2024-03-23T06:56:26;25.87;;;24.37;;
11431;SDS011;5772;50.940;6.782;2024-03-23T06:58:51;25.57;;;24.17;;
11431;SDS011;5772;50.940;6.782;2024-03-23T07:01:16;29.27;;;27.57;;
11431;SDS011;5772;50.940;6.782;2024-03-23T07:03:42;29.30;;;28.00;;
11431;SDS011;5772;50.940;6.782;2024-03-23T07:06:08;26.00;;;24.77;;
11431;SDS011;5772;50.940;6.782;2024-03-23T07:08:34;25.67;;;24.57;;
11431;SDS011;5772;50.940;6.782;2024-03-23T07:10:59;23.30;;;22.00;;
11431;SDS011;5772;50.940;6.782;2024-03-23T07:13:26;22.63;;;21.53;;
11431;SDS011;5772;50.940;6.782;2024-03-23T07:15:51;22.00;;;20.70;;
11431;SDS011;5772;50.940;6.782;2024-03-23T07:18:17;23.87;;;22.73;;
11431;SDS011;5772;50.940;6.782;2024-03-23T07:20:42;21.77;;;20.57;;
11431;SDS011;5772;50.940;6.782;2024-03-23T07:23:07;23.37;;;21.83;;
11431;SDS011;5772;50.940;6.782;2024-03-23T07:25:33;21.03;;;19.47;;
11431;SDS011;5772;50.940;6.782;2024-03-23T07:27:58;21.47;;;19.83;;
11431;SDS011;5772;50.940;6.782;2024-03-23T07:30:25;21.13;;;19.93;;
11431;SDS011;5772;50.940;6.782;2024-03-23T07:32:50;20.57;;;19.23;;
11431;SDS011;5772;50.940;6.782;2024-03-23T07:35:16;18.73;;;17.50;;
11431;SDS011;5772;50.940;6.782;2024-03-23T07:37:41;20.77;;;19.50;;
11431;SDS011;5772;50.940;6.782;2024-03-23T07:40:07;20.20;;;19.03;;
11431;SDS011;5772;50.940;6.782;2024-03-23T07:42:33;21.23;;;20.10;;
11431;SDS011;5772;50.940;6.782;2024-03-23T07:44:58;21.47;;;19.93;;
11431;SDS011;5772;50.940;6.782;2024-03-23T07:47:25;21.67;;;20.10;;
11431;SDS011;5772;50.940;6.782;2024-03-23T07:49:50;22.33;;;20.83;;
11431;SDS011;5772;50.940;6.782;2024-03-23T07:52:16;22.60;;;21.00;;
11431;SDS011;5772;50.940;6.782;2024-03-23T07:54:42;19.20;;;18.27;;
11431;SDS011;5772;50.940;6.782;2024-03-23T07:57:07;24.47;;;22.87;;
11431;SDS011;5772;50.940;6.782;2024-03-23T07:59:32;22.30;;;21.10;;
11431;SDS011;5772;50.940;6.782;2024-03-23T08:01:58;21.47;;;20.10;;
11431;SDS011;5772;50.940;6.782;2024-03-23T08:04:24;19.87;;;18.57;;
11431;SDS011;5772;50.940;6.782;2024-03-23T08:06:50;18.43;;;17.47;;
11431;SDS011;5772;50.940;6.782;2024-03-23T08:09:15;17.47;;;16.53;;
11431;SDS011;5772;50.940;6.782;2024-03-23T08:11:40;16.33;;;15.53;;
11431;SDS011;5772;50.940;6.782;2024-03-23T08:14:06;17.00;;;16.20;;
11431;SDS011;5772;50.940;6.782;2024-03-23T08:16:31;18.10;;;17.30;;
11431;SDS011;5772;50.940;6.782;2024-03-23T08:18:56;17.40;;;16.53;;
11431;SDS011;5772;50.940;6.782;2024-03-23T08:21:23;18.67;;;17.73;;
11431;SDS011;5772;50.940;6.782;2024-03-23T08:23:49;17.23;;;16.33;;
11431;SDS011;5772;50.940;6.782;2024-03-23T08:26:15;18.73;;;17.50;;
11431;SDS011;5772;50.940;6.782;2024-03-23T08:28:40;19.13;;;18.03;;
11431;SDS011;5772;50.940;6.782;2024-03-23T08:31:06;21.87;;;20.77;;
11431;SDS011;5772;50.940;6.782;2024-03-23T08:33:32;21.53;;;20.10;;
11431;SDS011;5772;50.940;6.782;2024-03-23T08:35:58;20.03;;;19.03;;
11431;SDS011;5772;50.940;6.782;2024-03-23T08:38:26;20.93;;;19.67;;
11431;SDS011;5772;50.940;6.782;2024-03-23T08:40:56;18.80;;;17.87;;
11431;SDS011;5772;50.940;6.782;2024-03-23T08:43:21;18.43;;;17.37;;
11431;SDS011;5772;50.940;6.782;2024-03-23T08:45:47;19.50;;;18.20;;
11431;SDS011;5772;50.940;6.782;2024-03-23T08:48:12;20.30;;;19.20;;
11431;SDS011;5772;50.940;6.782;2024-03-23T08:50:38;17.47;;;16.57;;
11431;SDS011;5772;50.940;6.782;2024-03-23T08:53:03;19.00;;;17.80;;
11431;SDS011;5772;50.940;6.782;2024-03-23T08:55:30;19.33;;;18.13;;
11431;SDS011;5772;50.940;6.782;2024-03-23T08:57:55;20.83;;;19.10;;
11431;SDS011;5772;50.940;6.782;2024-03-23T09:00:21;23.33;;;21.37;;
11431;SDS011;5772;50.940;6.782;2024-03-23T09:02:47;21.13;;;19.53;;
11431;SDS011;5772;50.940;6.782;2024-03-23T09:05:12;20.53;;;19.20;;
11431;SDS011;5772;50.940;6.782;2024-03-23T09:07:38;21.63;;;19.77;;
11431;SDS011;5772;50.940;6.782;2024-03-23T09:10:03;21.93;;;20.67;;
11431;SDS011;5772;50.940;6.782;2024-03-23T09:12:30;22.13;;;20.47;;
11431;SDS011;5772;50.940;6.782;2024-03-23T09:14:55;18.77;;;17.80;;
11431;SDS011;5772;50.940;6.782;2024-03-23T09:17:21;21.53;;;20.20;;
11431;SDS011;5772;50.940;6.782;2024-03-23T09:19:46;22.63;;;21.10;;
11431;SDS011;5772;50.940;6.782;2024-03-23T09:22:12;22.43;;;20.57;;
11431;SDS011;5772;50.940;6.782;2024-03-23T09:24:38;22.53;;;21.03;;
11431;SDS011;5772;50.940;6.782;2024-03-23T09:27:03;20.03;;;19.13;;
11431;SDS011;5772;50.940;6.782;2024-03-23T09:29:30;23.03;;;21.63;;
11431;SDS011;5772;50.940;6.782;2024-03-23T09:31:56;21.90;;;20.67;;
11431;SDS011;5772;50.940;6.782;2024-03-23T09:34:21;22.13;;;20.83;;
11431;SDS011;5772;50.940;6.782;2024-03-23T09:36:46;19.40;;;18.13;;
11431;SDS011;5772;50.940;6.782;2024-03-23T09:39:12;20.60;;;19.23;;
11431;SDS011;5772;50.940;6.782;2024-03-23T09:41:37;19.77;;;18.60;;
11431;SDS011;5772;50.940;6.782;2024-03-23T09:44:03;20.00;;;19.03;;
11431;SDS011;5772;50.940;6.782;2024-03-23T09:46:30;22.73;;;21.43;;
11431;SDS011;5772;50.940;6.782;2024-03-23T09:48:55;20.37;;;19.10;;
11431;SDS011;5772;50.940;6.782;2024-03-23T09:51:21;18.37;;;17.47;;
11431;SDS011;5772;50.940;6.782;2024-03-23T09:53:47;18.17;;;17.00;;
11431;SDS011;5772;50.940;6.782;2024-03-23T09:56:12;18.23;;;17.27;;
11431;SDS011;5772;50.940;6.782;2024-03-23T09:58:38;17.20;;;16.40;;
11431;SDS011;5772;50.940;6.782;2024-03-23T10:01:03;18.37;;;17.53;;
11431;SDS011;5772;50.940;6.782;2024-03-23T10:03:30;18.83;;;17.70;;
11431;SDS011;5772;50.940;6.782;2024-03-23T10:06:02;19.63;;;18.67;;
11431;SDS011;5772;50.940;6.782;2024-03-23T10:08:28;20.40;;;19.40;;
11431;SDS011;5772;50.940;6.782;2024-03-23T10:10:54;20.75;;;19.60;;
11431;SDS011;5772;50.940;6.782;2024-03-23T10:13:26;19.45;;;18.45;;
11431;SDS011;5772;50.940;6.782;2024-03-23T10:15:55;19.50;;;18.60;;
11431;SDS011;5772;50.940;6.782;2024-03-23T10:18:21;21.37;;;20.47;;
11431;SDS011;5772;50.940;6.782;2024-03-23T10:20:50;18.10;;;17.17;;
11431;SDS011;5772;50.940;6.782;2024-03-23T10:23:16;22.67;;;21.63;;
11431;SDS011;5772;50.940;6.782;2024-03-23T10:25:42;19.87;;;18.87;;
11431;SDS011;5772;50.940;6.782;2024-03-23T10:28:07;20.60;;;19.47;;
11431;SDS011;5772;50.940;6.782;2024-03-23T10:30:33;19.87;;;18.60;;
11431;SDS011;5772;50.940;6.782;2024-03-23T10:33:06;19.83;;;18.93;;
11431;SDS011;5772;50.940;6.782;2024-03-23T10:35:32;21.03;;;19.73;;
11431;SDS011;5772;50.940;6.782;2024-03-23T10:37:59;20.47;;;19.20;;
11431;SDS011;5772;50.940;6.782;2024-03-23T10:40:25;21.93;;;20.93;;
11431;SDS011;5772;50.940;6.782;2024-03-23T10:42:52;21.13;;;20.23;;
11431;SDS011;5772;50.940;6.782;2024-03-23T10:45:17;21.30;;;20.43;;
11431;SDS011;5772;50.940;6.782;2024-03-23T10:47:43;21.30;;;20.17;;
11431;SDS011;5772;50.940;6.782;2024-03-23T10:50:08;18.80;;;18.00;;
11431;SDS011;5772;50.940;6.782;2024-03-23T10:52:34;21.67;;;20.67;;
11431;SDS011;5772;50.940;6.782;2024-03-23T10:55:02;20.83;;;19.67;;
11431;SDS011;5772;50.940;6.782;2024-03-23T10:57:30;21.37;;;20.13;;
11431;SDS011;5772;50.940;6.782;2024-03-23T10:59:59;21.23;;;20.17;;
11431;SDS011;5772;50.940;6.782;2024-03-23T11:02:27;20.27;;;18.83;;
11431;SDS011;5772;50.940;6.782;2024-03-23T11:04:52;19.57;;;18.67;;
11431;SDS011;5772;50.940;6.782;2024-03-23T11:07:30;21.03;;;20.13;;
11431;SDS011;5772;50.940;6.782;2024-03-23T11:09:56;19.30;;;18.40;;
11431;SDS011;5772;50.940;6.782;2024-03-23T11:12:29;18.57;;;17.77;;
11431;SDS011;5772;50.940;6.782;2024-03-23T11:14:56;20.07;;;19.20;;
11431;SDS011;5772;50.940;6.782;2024-03-23T11:17:25;20.97;;;20.10;;
11431;SDS011;5772;50.940;6.782;2024-03-23T11:19:55;21.03;;;19.83;;
11431;SDS011;5772;50.940;6.782;2024-03-23T11:22:43;20.47;;;19.57;;
11431;SDS011;5772;50.940;6.782;2024-03-23T11:25:16;20.67;;;19.57;;
11431;SDS011;5772;50.940;6.782;2024-03-23T11:27:44;22.60;;;21.40;;
11431;SDS011;5772;50.940;6.782;2024-03-23T11:30:11;24.37;;;23.17;;
11431;SDS011;5772;50.940;6.782;2024-03-23T11:32:40;22.83;;;21.73;;
11431;SDS011;5772;50.940;6.782;2024-03-23T11:35:06;22.27;;;21.37;;
11431;SDS011;5772;50.940;6.782;2024-03-23T11:37:32;22.33;;;21.40;;
11431;SDS011;5772;50.940;6.782;2024-03-23T11:39:57;22.03;;;21.13;;
11431;SDS011;5772;50.940;6.782;2024-03-23T11:42:22;24.80;;;23.30;;
11431;SDS011;5772;50.940;6.782;2024-03-23T11:44:49;23.27;;;21.87;;
11431;SDS011;5772;50.940;6.782;2024-03-23T11:47:14;24.90;;;23.90;;
11431;SDS011;5772;50.940;6.782;2024-03-23T11:49:40;23.10;;;22.00;;
11431;SDS011;5772;50.940;6.782;2024-03-23T11:52:05;22.13;;;21.03;;
11431;SDS011;5772;50.940;6.782;2024-03-23T11:54:30;20.33;;;19.53;;
11431;SDS011;5772;50.940;6.782;2024-03-23T11:56:56;22.87;;;21.87;;
11431;SDS011;5772;50.940;6.782;2024-03-23T11:59:32;25.73;;;24.63;;
11431;SDS011;5772;50.940;6.782;2024-03-23T12:02:05;29.30;;;28.20;;
11431;SDS011;5772;50.940;6.782;2024-03-23T12:04:31;32.67;;;30.93;;
11431;SDS011;5772;50.940;6.782;2024-03-23T12:07:09;34.23;;;31.73;;
11431;SDS011;5772;50.940;6.782;2024-03-23T12:09:35;29.77;;;27.97;;
11431;SDS011;5772;50.940;6.782;2024-03-23T12:12:05;20.83;;;19.73;;
11431;SDS011;5772;50.940;6.782;2024-03-23T12:14:31;22.60;;;21.60;;
11431;SDS011;5772;50.940;6.782;2024-03-23T12:16:56;21.97;;;21.07;;
11431;SDS011;5772;50.940;6.782;2024-03-23T12:19:34;21.93;;;20.93;;
11431;SDS011;5772;50.940;6.782;2024-03-23T12:21:59;21.87;;;20.93;;
11431;SDS011;5772;50.940;6.782;2024-03-23T12:24:24;21.37;;;20.23;;
11431;SDS011;5772;50.940;6.782;2024-03-23T12:26:50;22.13;;;21.23;;
11431;SDS011;5772;50.940;6.782;2024-03-23T12:29:15;27.80;;;26.63;;
11431;SDS011;5772;50.940;6.782;2024-03-23T12:31:40;32.37;;;31.07;;
11431;SDS011;5772;50.940;6.782;2024-03-23T12:34:07;24.43;;;23.43;;
11431;SDS011;5772;50.940;6.782;2024-03-23T12:36:32;23.93;;;22.93;;
11431;SDS011;5772;50.940;6.782;2024-03-23T12:38:58;29.03;;;27.43;;
11431;SDS011;5772;50.940;6.782;2024-03-23T12:41:23;28.47;;;27.27;;
11431;SDS011;5772;50.940;6.782;2024-03-23T12:43:49;31.57;;;29.90;;
11431;SDS011;5772;50.940;6.782;2024-03-23T12:46:14;29.90;;;28.57;;
11431;SDS011;5772;50.940;6.782;2024-03-23T12:48:39;28.87;;;27.73;;
11431;SDS011;5772;50.940;6.782;2024-03-23T12:51:06;26.13;;;25.10;;
11431;SDS011;5772;50.940;6.782;2024-03-23T12:53:31;22.47;;;21.57;;
11431;SDS011;5772;50.940;6.782;2024-03-23T12:55:57;22.93;;;21.93;;
11431;SDS011;5772;50.940;6.782;2024-03-23T12:58:22;23.07;;;22.17;;
11431;SDS011;5772;50.940;6.782;2024-03-23T13:00:47;20.07;;;19.27;;
11431;SDS011;5772;50.940;6.782;2024-03-23T13:03:13;21.67;;;20.77;;
11431;SDS011;5772;50.940;6.782;2024-03-23T13:05:38;20.87;;;19.93;;
11431;SDS011;5772;50.940;6.782;2024-03-23T13:08:06;22.30;;;21.30;;
11431;SDS011;5772;50.940;6.782;2024-03-23T13:10:31;20.67;;;19.87;;
11431;SDS011;5772;50.940;6.782;2024-03-23T13:12:57;21.17;;;20.10;;
11431;SDS011;5772;50.940;6.782;2024-03-23T13:15:22;21.90;;;20.90;;
11431;SDS011;5772;50.940;6.782;2024-03-23T13:17:47;22.43;;;21.37;;
11431;SDS011;5772;50.940;6.782;2024-03-23T13:20:13;21.83;;;20.93;;
11431;SDS011;5772;50.940;6.782;2024-03-23T13:22:38;22.27;;;21.17;;
11431;SDS011;5772;50.940;6.782;2024-03-23T13:25:06;22.43;;;21.50;;
11431;SDS011;5772;50.940;6.782;2024-03-23T13:27:31;21.47;;;20.53;;
11431;SDS011;5772;50.940;6.782;2024-03-23T13:29:57;21.10;;;20.20;;
11431;SDS011;5772;50.940;6.782;2024-03-23T13:32:22;20.47;;;19.57;;
11431;SDS011;5772;50.940;6.782;2024-03-23T13:34:48;20.83;;;19.90;;
11431;SDS011;5772;50.940;6.782;2024-03-23T13:37:13;20.70;;;19.60;;
11431;SDS011;5772;50.940;6.782;2024-03-23T13:39:38;19.37;;;18.50;;
11431;SDS011;5772;50.940;6.782;2024-03-23T13:42:05;19.67;;;18.80;;
11431;SDS011;5772;50.940;6.782;2024-03-23T13:44:31;19.63;;;18.83;;
11431;SDS011;5772;50.940;6.782;2024-03-23T13:46:56;18.23;;;17.53;;
11431;SDS011;5772;50.940;6.782;2024-03-23T13:49:26;20.03;;;19.13;;
11431;SDS011;5772;50.940;6.782;2024-03-23T13:51:52;21.40;;;20.53;;
11431;SDS011;5772;50.940;6.782;2024-03-23T13:54:18;21.40;;;20.40;;
11431;SDS011;5772;50.940;6.782;2024-03-23T13:56:43;21.60;;;20.80;;
11431;SDS011;5772;50.940;6.782;2024-03-23T13:59:10;23.33;;;22.40;;
11431;SDS011;5772;50.940;6.782;2024-03-23T14:01:35;26.67;;;25.57;;
11431;SDS011;5772;50.940;6.782;2024-03-23T14:04:01;32.20;;;30.50;;
11431;SDS011;5772;50.940;6.782;2024-03-23T14:06:26;29.47;;;28.27;;
11431;SDS011;5772;50.940;6.782;2024-03-23T14:08:51;27.03;;;25.93;;
11431;SDS011;5772;50.940;6.782;2024-03-23T14:11:18;27.90;;;26.77;;
11431;SDS011;5772;50.940;6.782;2024-03-23T14:13:43;29.53;;;28.33;;
11431;SDS011;5772;50.940;6.782;2024-03-23T14:16:10;29.80;;;28.43;;
11431;SDS011;5772;50.940;6.782;2024-03-23T14:18:35;29.87;;;28.63;;
11431;SDS011;5772;50.940;6.782;2024-03-23T14:21:01;28.17;;;27.00;;
11431;SDS011;5772;50.940;6.782;2024-03-23T14:23:27;27.13;;;26.03;;
11431;SDS011;5772;50.940;6.782;2024-03-23T14:25:53;27.17;;;26.10;;
11431;SDS011;5772;50.940;6.782;2024-03-23T14:28:19;23.33;;;22.23;;
11431;SDS011;5772;50.940;6.782;2024-03-23T14:30:44;22.47;;;21.57;;
11431;SDS011;5772;50.940;6.782;2024-03-23T14:33:11;21.73;;;20.73;;
11431;SDS011;5772;50.940;6.782;2024-03-23T14:35:36;21.37;;;20.07;;
11431;SDS011;5772;50.940;6.782;2024-03-23T14:38:01;20.97;;;19.57;;
11431;SDS011;5772;50.940;6.782;2024-03-23T14:40:27;20.67;;;19.77;;
11431;SDS011;5772;50.940;6.782;2024-03-23T14:42:53;21.97;;;20.83;;
11431;SDS011;5772;50.940;6.782;2024-03-23T14:45:18;23.57;;;22.43;;
11431;SDS011;5772;50.940;6.782;2024-03-23T14:47:44;30.17;;;28.97;;
11431;SDS011;5772;50.940;6.782;2024-03-23T14:50:10;31.10;;;29.90;;
11431;SDS011;5772;50.940;6.782;2024-03-23T14:52:36;24.83;;;23.60;;
11431;SDS011;5772;50.940;6.782;2024-03-23T14:55:01;20.70;;;19.87;;
11431;SDS011;5772;50.940;6.782;2024-03-23T14:57:27;23.03;;;22.13;;
11431;SDS011;5772;50.940;6.782;2024-03-23T14:59:52;25.67;;;24.57;;
11431;SDS011;5772;50.940;6.782;2024-03-23T15:02:17;29.30;;;28.10;;
11431;SDS011;5772;50.940;6.782;2024-03-23T15:04:43;29.00;;;27.87;;